Time;durP1;ratioP1;P1;durP2;ratioP2;P2;SDS_P1;SDS_P2;PMS_P1;PMS_P2;Temp;Humidity;BMP_temperature;BMP_pressure;BME280_temperature;BME280_humidity;BME280_pressure;Samples;Min_cycle;Max_cycle;Signal;HPM_P1;HPM_P2
2023/07/05 00:00:51;;;;;;;10.07;5.00;;;;;;;17.66;100.00;100352.56;5041077;28;20087;-66
2023/07/05 00:03:19;;;;;;;11.98;5.25;;;;;;;17.67;100.00;100342.34;5034201;28;20045;-64
2023/07/05 00:05:47;;;;;;;14.57;5.60;;;;;;;17.65;100.00;100339.09;5033194;28;20049;-65
2023/07/05 00:08:15;;;;;;;10.13;5.30;;;;;;;17.61;100.00;100338.16;5034800;28;20080;-63
2023/07/05 00:10:43;;;;;;;8.02;4.45;;;;;;;17.59;100.00;100334.91;5034043;28;20493;-64
2023/07/05 00:13:11;;;;;;;11.20;4.70;;;;;;;17.53;100.00;100330.69;5034465;28;20056;-64
2023/07/05 00:15:38;;;;;;;10.98;4.90;;;;;;;17.48;100.00;100317.09;5033518;28;20612;-64
2023/07/05 00:18:06;;;;;;;8.85;4.60;;;;;;;17.45;100.00;100302.84;5016146;28;20515;-65
2023/07/05 00:20:36;;;;;;;9.20;4.97;;;;;;;17.46;100.00;100298.97;5036859;28;20049;-65
2023/07/05 00:23:05;;;;;;;10.52;4.50;;;;;;;17.46;100.00;100282.44;5053015;28;20562;-65
2023/07/05 00:25:32;;;;;;;7.68;4.40;;;;;;;17.49;100.00;100263.66;5053846;28;20045;-63
2023/07/05 00:28:00;;;;;;;8.20;4.00;;;;;;;17.52;100.00;100263.78;5043367;28;20049;-63
2023/07/05 00:30:28;;;;;;;7.93;4.15;;;;;;;17.56;100.00;100258.44;5053686;28;20055;-65
2023/07/05 00:32:56;;;;;;;8.35;3.95;;;;;;;17.59;100.00;100253.06;5036680;28;20050;-65
2023/07/05 00:35:24;;;;;;;9.25;4.05;;;;;;;17.61;100.00;100239.78;5033695;28;20053;-65
2023/07/05 00:37:51;;;;;;;7.80;4.18;;;;;;;17.56;100.00;100228.16;5047362;28;20041;-66
2023/07/05 00:40:20;;;;;;;7.25;3.92;;;;;;;17.55;100.00;100219.06;5055885;28;20401;-66
2023/07/05 00:42:48;;;;;;;10.85;3.85;;;;;;;17.55;100.00;100218.25;5027719;28;20079;-64
2023/07/05 00:45:19;;;;;;;6.93;3.80;;;;;;;17.55;100.00;100204.47;5037660;28;20421;-64
2023/07/05 00:47:47;;;;;;;9.27;3.90;;;;;;;17.54;100.00;100202.88;5039363;28;20053;-63
2023/07/05 00:50:24;;;;;;;6.93;3.33;;;;;;;17.51;100.00;100196.06;5036897;28;20089;-64
2023/07/05 00:52:53;;;;;;;6.45;3.40;;;;;;;17.49;100.00;100168.06;5028835;28;20040;-64
2023/07/05 00:55:23;;;;;;;5.50;3.10;;;;;;;17.49;100.00;100156.22;5036250;28;20068;-65
2023/07/05 00:57:52;;;;;;;6.07;3.25;;;;;;;17.50;100.00;100160.59;5036537;28;20063;-63
2023/07/05 01:00:22;;;;;;;7.90;3.42;;;;;;;17.50;100.00;100177.91;5054433;28;20045;-65
2023/07/05 01:02:55;;;;;;;7.55;3.55;;;;;;;17.42;100.00;100176.03;5054465;28;20501;-62
2023/07/05 01:05:23;;;;;;;5.65;3.33;;;;;;;17.35;100.00;100179.28;5056441;28;20048;-65
2023/07/05 01:07:51;;;;;;;6.90;3.25;;;;;;;17.32;100.00;100171.69;5055949;28;20049;-66
2023/07/05 01:10:24;;;;;;;8.27;3.33;;;;;;;17.29;100.00;100166.81;5039569;28;20055;-64
2023/07/05 01:13:05;;;;;;;6.03;3.28;;;;;;;17.28;100.00;100165.22;5057119;28;20473;-66
2023/07/05 01:15:52;;;;;;;7.10;3.60;;;;;;;17.23;100.00;100155.19;5037399;28;20179;-64
2023/07/05 01:18:40;;;;;;;5.65;3.30;;;;;;;17.23;100.00;100155.19;5058850;28;20044;-65
2023/07/05 01:21:08;;;;;;;7.80;3.70;;;;;;;17.21;100.00;100151.13;5067904;28;20041;-58
2023/07/05 01:24:13;;;;;;;5.05;3.13;;;;;;;17.19;100.00;100150.66;5075924;28;20072;-64
2023/07/05 01:26:55;;;;;;;;;;;;;;;17.20;100.00;100150.34;5065335;28;20055;-63
2023/07/05 01:29:29;;;;;;;5.75;2.85;;;;;;;17.18;100.00;100141.59;5063667;28;19967;-65
2023/07/05 01:32:11;;;;;;;6.15;3.10;;;;;;;17.20;100.00;100138.53;5055222;28;20051;-63
2023/07/05 01:34:57;;;;;;;6.65;3.05;;;;;;;17.20;100.00;100130.25;5050693;28;20150;-63
2023/07/05 01:37:40;;;;;;;6.53;3.28;;;;;;;17.22;100.00;100139.81;5007708;28;20049;-65
2023/07/05 01:40:34;;;;;;;5.10;3.05;;;;;;;17.24;100.00;100133.97;5057034;28;20045;-64
2023/07/05 01:43:10;;;;;;;8.05;3.35;;;;;;;17.21;100.00;100132.66;5056552;28;20041;-64
2023/07/05 01:45:44;;;;;;;5.28;2.97;;;;;;;17.24;100.00;100136.72;5055697;28;20049;-65
2023/07/05 01:48:28;;;;;;;4.75;3.03;;;;;;;17.27;100.00;100129.72;5049211;28;20057;-65
2023/07/05 01:51:01;;;;;;;5.20;3.00;;;;;;;17.29;100.00;100142.03;5019770;28;20051;-63
2023/07/05 01:53:59;;;;;;;10.38;3.22;;;;;;;17.31;100.00;100142.50;5035511;28;20451;-64
2023/07/05 01:56:37;;;;;;;6.28;3.05;;;;;;;17.34;100.00;100135.53;5009659;28;20057;-64
2023/07/05 01:59:06;;;;;;;4.93;2.80;;;;;;;17.35;100.00;100131.66;5021241;28;20041;-65
2023/07/05 02:01:35;;;;;;;5.43;2.58;;;;;;;17.35;100.00;100134.41;5055036;28;20045;-65
2023/07/05 02:04:06;;;;;;;6.65;3.40;;;;;;;17.35;100.00;100132.47;5038833;28;20409;-64
2023/07/05 02:06:34;;;;;;;4.95;2.70;;;;;;;17.34;100.00;100130.03;5054926;28;20079;-63
2023/07/05 02:09:02;;;;;;;7.10;2.90;;;;;;;17.33;100.00;100139.44;5048174;28;20063;-64
2023/07/05 02:11:30;;;;;;;4.70;2.63;;;;;;;17.32;100.00;100148.81;5036430;28;20045;-64
2023/07/05 02:13:57;;;;;;;4.70;2.90;;;;;;;17.32;100.00;100160.66;5035171;28;20048;-64
2023/07/05 02:16:25;;;;;;;4.30;2.40;;;;;;;17.31;100.00;100158.22;5043396;28;20566;-64
2023/07/05 02:18:53;;;;;;;3.80;2.65;;;;;;;17.29;100.00;100163.25;5054702;28;20041;-63
2023/07/05 02:21:21;;;;;;;5.35;2.72;;;;;;;17.29;100.00;100163.25;5053418;28;20045;-65
2023/07/05 02:23:49;;;;;;;6.85;2.50;;;;;;;17.25;100.00;100163.91;5054840;28;20057;-63
2023/07/05 02:26:17;;;;;;;5.10;2.58;;;;;;;17.24;100.00;100172.50;5051843;28;20041;-65
2023/07/05 02:28:44;;;;;;;4.65;2.55;;;;;;;17.20;100.00;100185.31;5035803;28;20046;-64
2023/07/05 02:31:12;;;;;;;3.42;2.45;;;;;;;17.17;100.00;100196.97;5045269;28;20396;-63
2023/07/05 02:33:43;;;;;;;5.57;2.90;;;;;;;17.17;100.00;100191.47;5055686;28;20440;-64
2023/07/05 02:36:14;;;;;;;4.28;2.50;;;;;;;17.10;100.00;100218.69;5032550;28;20045;-65
2023/07/05 02:38:42;;;;;;;5.80;2.90;;;;;;;17.02;99.38;100218.38;5036474;28;20099;-65
2023/07/05 02:41:10;;;;;;;8.27;2.60;;;;;;;16.89;97.82;100230.38;5039210;28;20421;-65
2023/07/05 02:43:38;;;;;;;5.13;2.80;;;;;;;16.81;98.70;100242.19;5049105;28;20064;-65
2023/07/05 02:46:06;;;;;;;4.78;2.78;;;;;;;16.76;99.22;100242.31;5039898;28;20045;-64
2023/07/05 02:48:34;;;;;;;6.10;2.80;;;;;;;16.73;100.00;100242.97;5055156;28;20075;-65
2023/07/05 02:51:01;;;;;;;5.32;2.85;;;;;;;16.73;100.00;100251.22;5053170;28;20435;-65
2023/07/05 02:53:29;;;;;;;5.10;3.17;;;;;;;16.70;99.38;100251.88;5033963;28;20099;-64
2023/07/05 02:55:57;;;;;;;7.15;3.40;;;;;;;16.69;99.04;100236.50;5043282;28;20053;-65
2023/07/05 02:58:25;;;;;;;5.82;3.25;;;;;;;16.64;98.08;100247.66;5054615;28;20408;-64
2023/07/05 03:00:53;;;;;;;7.88;3.58;;;;;;;16.59;95.44;100254.94;5017244;28;20096;-64
2023/07/05 03:03:21;;;;;;;6.20;3.22;;;;;;;16.52;94.67;100246.34;5044467;28;20106;-64
2023/07/05 03:05:59;;;;;;;7.15;3.55;;;;;;;16.46;94.66;100250.41;5038467;28;20051;-65
2023/07/05 03:08:28;;;;;;;6.60;3.33;;;;;;;16.44;94.96;100240.84;5037138;28;20059;-66
2023/07/05 03:10:57;;;;;;;5.35;3.08;;;;;;;16.43;96.12;100245.56;5037141;28;20390;-66
2023/07/05 03:13:32;;;;;;;4.57;2.83;;;;;;;16.42;95.67;100243.13;5053766;28;20393;-64
2023/07/05 03:16:01;;;;;;;6.30;3.10;;;;;;;16.41;96.44;100250.56;5051188;28;20052;-65
2023/07/05 03:18:30;;;;;;;5.03;3.00;;;;;;;16.40;95.77;100237.94;5047720;28;20045;-63
2023/07/05 03:20:58;;;;;;;5.75;3.17;;;;;;;16.38;96.59;100248.47;5050021;28;20041;-64
2023/07/05 03:23:25;;;;;;;8.98;3.22;;;;;;;16.35;96.48;100243.59;5041784;28;20049;-65
2023/07/05 03:26:11;;;;;;;6.65;3.50;;;;;;;16.36;96.25;100248.78;5046744;28;20490;-66
2023/07/05 03:28:42;;;;;;;6.30;3.30;;;;;;;16.34;95.97;100252.97;5033338;28;20106;-65
2023/07/05 03:31:15;;;;;;;6.95;3.20;;;;;;;16.27;96.33;100260.88;5034069;28;20049;-65
2023/07/05 03:33:43;;;;;;;9.07;3.63;;;;;;;16.25;96.44;100263.13;5018835;28;20045;-65
2023/07/05 03:36:16;;;;;;;6.45;3.38;;;;;;;16.25;95.93;100254.91;5053505;28;20110;-66
2023/07/05 03:38:45;;;;;;;6.53;3.58;;;;;;;16.25;95.63;100263.13;5035926;28;20052;-64
2023/07/05 03:41:16;;;;;;;13.63;3.58;;;;;;;16.23;95.66;100263.44;5036499;28;20045;-64
2023/07/05 03:43:45;;;;;;;6.00;3.50;;;;;;;16.21;95.24;100260.22;5036179;28;20075;-64
2023/07/05 03:46:14;;;;;;;8.07;3.70;;;;;;;16.21;95.61;100259.41;5034023;28;20049;-64
2023/07/05 03:48:44;;;;;;;8.75;3.85;;;;;;;16.19;95.61;100268.78;5033109;28;20482;-64
2023/07/05 03:51:14;;;;;;;8.07;3.83;;;;;;;16.23;95.81;100257.16;5033099;28;20050;-64
2023/07/05 03:53:42;;;;;;;7.05;3.72;;;;;;;16.23;94.85;100268.13;5016951;28;20037;-64
2023/07/05 03:56:11;;;;;;;7.10;3.83;;;;;;;16.17;94.74;100254.56;5046650;28;20588;-64
2023/07/05 03:58:38;;;;;;;6.95;3.75;;;;;;;16.20;94.78;100258.59;5051073;28;20041;-63
2023/07/05 04:01:15;;;;;;;7.07;3.80;;;;;;;16.20;94.47;100264.09;5032748;28;20041;-64
2023/07/05 04:03:44;;;;;;;6.60;3.83;;;;;;;16.21;94.70;100262.97;5034294;28;20041;-64
2023/07/05 04:06:12;;;;;;;6.72;3.63;;;;;;;16.18;94.38;100261.66;5045118;28;20045;-65
2023/07/05 04:08:40;;;;;;;9.27;4.32;;;;;;;16.12;94.36;100246.47;5053145;28;20497;-65
2023/07/05 04:11:08;;;;;;;9.35;4.40;;;;;;;16.11;94.55;100244.81;5054476;28;20033;-64
2023/07/05 04:13:36;;;;;;;8.15;4.70;;;;;;;16.13;94.39;100248.06;5054292;28;20045;-64
2023/07/05 04:16:10;;;;;;;7.65;4.03;;;;;;;16.12;93.64;100240.16;5052154;28;20036;-64
2023/07/05 04:18:39;;;;;;;8.38;4.25;;;;;;;16.12;94.28;100240.97;5035536;28;20053;-63
2023/07/05 04:21:07;;;;;;;7.70;4.00;;;;;;;16.11;94.34;100239.31;5016333;28;20056;-65
2023/07/05 04:23:36;;;;;;;7.20;3.95;;;;;;;16.10;94.35;100251.47;5033885;28;20053;-63
2023/07/05 04:26:06;;;;;;;8.77;4.20;;;;;;;16.13;94.49;100256.31;5046415;28;20053;-64
2023/07/05 04:28:35;;;;;;;8.68;3.90;;;;;;;16.13;94.84;100256.31;5033138;28;20540;-65
2023/07/05 04:31:04;;;;;;;6.75;4.00;;;;;;;16.12;94.65;100260.19;5016238;28;20052;-65
2023/07/05 04:33:31;;;;;;;9.27;3.80;;;;;;;16.10;95.12;100253.41;5032169;28;20132;-63
2023/07/05 04:36:00;;;;;;;9.02;3.72;;;;;;;16.13;94.77;100258.25;5020088;28;20523;-66
2023/07/05 04:38:28;;;;;;;7.40;4.03;;;;;;;16.12;94.70;100253.91;5025255;28;20413;-65
2023/07/05 04:40:58;;;;;;;9.35;4.10;;;;;;;16.18;94.96;100250.66;5002577;28;20050;-65
2023/07/05 04:43:26;;;;;;;6.18;3.95;;;;;;;16.17;93.71;100246.31;5033429;28;20421;-65
2023/07/05 04:45:57;;;;;;;9.50;4.30;;;;;;;16.17;94.42;100260.06;5046204;28;20045;-64
2023/07/05 04:48:26;;;;;;;7.82;4.25;;;;;;;16.14;93.90;100260.69;5046001;28;20111;-65
2023/07/05 04:50:54;;;;;;;7.25;3.97;;;;;;;16.15;93.49;100259.56;5052569;28;20404;-66
2023/07/05 04:53:24;;;;;;;7.78;4.30;;;;;;;16.11;93.14;100255.81;5035762;28;20060;-66
2023/07/05 04:55:53;;;;;;;8.43;4.28;;;;;;;16.14;93.44;100257.16;5051947;28;20072;-65
2023/07/05 04:58:22;;;;;;;8.25;4.28;;;;;;;16.11;93.28;100244.81;5047944;28;20101;-65
2023/07/05 05:00:50;;;;;;;8.27;4.10;;;;;;;16.11;92.45;100242.06;5033712;28;20048;-64
2023/07/05 05:03:23;;;;;;;6.43;3.38;;;;;;;16.16;95.56;100236.44;4454194;28;10001314;-65
2023/07/05 05:05:54;;;;;;;11.68;3.42;;;;;;;16.30;97.12;100243.75;5045399;28;20250;-66
2023/07/05 05:08:23;;;;;;;11.75;3.80;;;;;;;16.50;95.75;100231.31;5029454;28;20156;-65
2023/07/05 05:10:57;;;;;;;12.98;4.15;;;;;;;16.61;93.78;100233.41;5026951;28;20056;-66
2023/07/05 05:13:29;;;;;;;8.98;3.92;;;;;;;16.65;92.66;100249.28;5046162;28;20053;-66
2023/07/05 05:15:58;;;;;;;11.82;4.72;;;;;;;16.67;91.47;100260.75;5048196;28;20098;-66
2023/07/05 05:18:29;;;;;;;7.75;3.35;;;;;;;16.68;93.99;100257.69;5045186;28;20053;-66
2023/07/05 05:20:57;;;;;;;10.57;4.03;;;;;;;16.54;92.09;100252.34;5028168;28;20589;-66
2023/07/05 05:23:25;;;;;;;7.65;4.03;;;;;;;16.68;92.19;100257.69;5031209;28;20049;-65
2023/07/05 05:25:53;;;;;;;10.82;4.53;;;;;;;16.60;90.19;100256.56;5031743;28;20045;-66
2023/07/05 05:28:21;;;;;;;9.82;4.07;;;;;;;16.49;92.18;100266.25;5032602;28;20053;-67
2023/07/05 05:30:50;;;;;;;8.00;3.65;;;;;;;16.44;93.46;100268.34;5049537;28;20056;-65
2023/07/05 05:33:18;;;;;;;7.68;3.50;;;;;;;16.58;93.02;100253.31;5048867;28;20492;-67
2023/07/05 05:35:50;;;;;;;9.77;4.68;;;;;;;16.22;88.33;100266.53;5036094;28;20053;-67
2023/07/05 05:38:18;;;;;;;8.57;4.47;;;;;;;16.04;89.24;100260.16;5032826;28;20045;-66
2023/07/05 05:40:50;;;;;;;9.90;4.65;;;;;;;15.95;89.54;100262.91;5015013;28;20045;-65
2023/07/05 05:43:19;;;;;;;11.90;4.35;;;;;;;16.01;89.64;100267.09;5047908;28;20546;-65
2023/07/05 05:45:47;;;;;;;11.68;4.68;;;;;;;15.94;88.43;100262.06;5050749;28;20121;-62
2023/07/05 05:48:15;;;;;;;10.65;4.32;;;;;;;15.94;88.60;100258.50;5056541;28;20102;-63
2023/07/05 05:50:43;;;;;;;6.50;3.33;;;;;;;15.94;89.81;100261.25;5053888;28;20121;-65
2023/07/05 05:53:11;;;;;;;8.57;3.40;;;;;;;16.12;93.59;100262.94;5055735;28;20053;-67
2023/07/05 05:55:39;;;;;;;9.95;4.38;;;;;;;16.09;89.60;100274.59;5053909;28;20064;-60
2023/07/05 05:58:08;;;;;;;11.82;4.78;;;;;;;16.05;90.97;100276.34;5060148;28;20080;-58
2023/07/05 06:00:37;;;;;;;12.43;4.00;;;;;;;16.14;94.90;100271.69;5060774;28;20079;-65
2023/07/05 06:03:05;;;;;;;8.25;4.60;;;;;;;15.99;89.33;100285.84;5035459;28;20099;-65
2023/07/05 06:05:35;;;;;;;7.68;4.30;;;;;;;15.84;89.58;100283.53;5034464;28;20049;-65
2023/07/05 06:08:03;;;;;;;10.02;4.75;;;;;;;15.75;90.07;100287.06;5038742;28;20049;-65
2023/07/05 06:10:31;;;;;;;9.48;4.35;;;;;;;15.70;91.65;100298.16;5043364;28;20055;-65
2023/07/05 06:12:59;;;;;;;8.93;3.97;;;;;;;15.74;94.54;100301.91;5047302;28;20067;-65
2023/07/05 06:15:27;;;;;;;10.38;4.13;;;;;;;15.96;96.68;100289.25;5048277;28;20052;-64
2023/07/05 06:17:55;;;;;;;7.55;3.60;;;;;;;16.12;96.41;100290.44;5055320;28;20046;-65
2023/07/05 06:20:27;;;;;;;6.88;3.78;;;;;;;16.06;93.80;100302.69;5042073;28;20409;-66
2023/07/05 06:22:55;;;;;;;9.75;4.00;;;;;;;16.01;94.10;100304.78;5036972;28;20054;-64
2023/07/05 06:25:22;;;;;;;7.40;3.80;;;;;;;15.94;93.93;100306.03;5034537;28;20045;-65
2023/07/05 06:27:50;;;;;;;7.00;3.60;;;;;;;15.79;94.26;100303.72;5042591;28;20089;-65
2023/07/05 06:30:19;;;;;;;8.52;4.03;;;;;;;15.86;94.39;100304.06;5053434;28;20406;-66
2023/07/05 06:32:47;;;;;;;10.57;3.53;;;;;;;15.85;95.78;100323.59;5053534;28;20412;-66
2023/07/05 06:35:15;;;;;;;14.07;4.22;;;;;;;16.18;99.56;100305.63;5034002;28;20045;-66
2023/07/05 06:37:43;;;;;;;11.73;3.95;;;;;;;16.03;94.27;100316.25;5033411;28;20049;-66
2023/07/05 06:40:11;;;;;;;8.65;3.83;;;;;;;16.08;97.11;100314.19;5034213;28;20049;-65
2023/07/05 06:42:39;;;;;;;9.45;3.25;;;;;;;16.00;94.36;100336.94;5033125;28;20038;-65
2023/07/05 06:45:13;;;;;;;8.70;3.47;;;;;;;16.07;92.71;100329.06;5040751;28;20036;-65
2023/07/05 06:47:41;;;;;;;9.73;3.67;;;;;;;15.97;91.04;100327.41;5043831;28;20057;-63
2023/07/05 06:50:09;;;;;;;10.10;3.47;;;;;;;16.09;92.40;100334.22;5031038;28;20911;-64
2023/07/05 06:52:37;;;;;;;7.80;3.25;;;;;;;16.14;92.00;100326.66;5049173;28;20055;-65
2023/07/05 06:55:05;;;;;;;9.40;3.72;;;;;;;16.18;90.44;100321.31;5049967;28;20055;-65
2023/07/05 06:57:33;;;;;;;9.25;3.25;;;;;;;16.27;89.48;100335.09;5051573;28;20063;-65
2023/07/05 07:00:01;;;;;;;10.60;3.47;;;;;;;16.24;87.14;100342.06;5027969;28;20108;-66
2023/07/05 07:02:29;;;;;;;7.65;3.10;;;;;;;16.08;86.60;100344.41;5034218;28;20102;-65
2023/07/05 07:04:57;;;;;;;8.57;3.22;;;;;;;16.10;86.11;100342.16;5016643;28;20059;-65
2023/07/05 07:07:25;;;;;;;5.65;3.00;;;;;;;15.95;85.88;100335.16;5036397;28;20045;-63
2023/07/05 07:09:56;;;;;;;10.00;3.40;;;;;;;16.12;89.41;100355.59;5034949;28;20057;-64
2023/07/05 07:12:25;;;;;;;10.60;3.45;;;;;;;16.02;86.04;100351.19;5035418;28;20507;-65
2023/07/05 07:14:52;;;;;;;6.53;3.08;;;;;;;16.15;85.41;100349.44;5038687;28;20179;-63
2023/07/05 07:17:20;;;;;;;7.00;3.13;;;;;;;16.03;84.20;100357.47;5053802;28;20106;-65
2023/07/05 07:19:48;;;;;;;6.45;2.80;;;;;;;15.98;84.54;100361.19;5055198;28;20044;-64
2023/07/05 07:22:16;;;;;;;7.95;2.92;;;;;;;15.98;83.79;100375.72;5055161;28;20045;-63
2023/07/05 07:24:44;;;;;;;10.90;2.95;;;;;;;15.93;83.87;100383.28;5058862;28;20120;-63
2023/07/05 07:27:12;;;;;;;7.30;3.05;;;;;;;15.92;84.66;100395.41;5065514;28;20117;-65
2023/07/05 07:29:44;;;;;;;10.90;3.15;;;;;;;15.86;83.45;100391.97;5063701;28;20413;-63
2023/07/05 07:32:12;;;;;;;6.68;2.60;;;;;;;15.86;84.95;100385.69;5061966;28;20060;-64
2023/07/05 07:34:40;;;;;;;4.93;2.53;;;;;;;15.82;83.74;100395.66;5037390;28;20129;-63
2023/07/05 07:37:08;;;;;;;7.35;2.97;;;;;;;15.80;84.17;100392.41;5056962;28;20156;-64
2023/07/05 07:39:36;;;;;;;7.70;3.00;;;;;;;15.83;85.22;100413.78;5051117;28;20075;-63
2023/07/05 07:42:04;;;;;;;6.43;2.80;;;;;;;15.86;86.05;100424.94;5040710;28;20337;-62
2023/07/05 07:44:32;;;;;;;8.05;2.70;;;;;;;15.85;85.53;100436.25;5053768;28;20053;-63
2023/07/05 07:47:01;;;;;;;8.48;2.90;;;;;;;15.85;86.84;100437.06;5054777;28;20048;-61
2023/07/05 07:49:29;;;;;;;10.07;3.33;;;;;;;15.84;87.27;100462.09;5054494;28;20049;-64
2023/07/05 07:51:57;;;;;;;6.32;2.83;;;;;;;15.79;88.80;100443.00;5052638;28;20059;-64
2023/07/05 07:54:30;;;;;;;11.35;3.72;;;;;;;15.77;89.26;100444.09;5033107;28;20049;-62
2023/07/05 07:56:58;;;;;;;8.32;3.58;;;;;;;15.76;90.06;100444.44;5034908;28;20061;-62
2023/07/05 07:59:26;;;;;;;8.27;3.40;;;;;;;15.70;90.94;100446.47;5035118;28;20060;-63
2023/07/05 08:01:54;;;;;;;10.82;3.80;;;;;;;15.80;90.94;100447.34;5048097;28;20401;-64
2023/07/05 08:04:22;;;;;;;10.02;3.88;;;;;;;15.75;91.59;100462.03;5032883;28;20045;-66
2023/07/05 08:06:51;;;;;;;7.57;3.30;;;;;;;15.55;91.44;100457.81;5017060;28;20041;-64
2023/07/05 08:09:27;;;;;;;9.88;3.90;;;;;;;15.53;93.06;100457.31;5052497;28;20048;-65
2023/07/05 08:11:56;;;;;;;7.03;3.03;;;;;;;15.57;92.41;100461.06;5049665;28;20037;-63
2023/07/05 08:14:24;;;;;;;14.52;3.50;;;;;;;15.62;92.79;100463.69;5034043;28;20041;-64
2023/07/05 08:16:52;;;;;;;11.88;4.15;;;;;;;15.73;92.63;100476.09;5033323;28;20095;-64
2023/07/05 08:19:20;;;;;;;21.05;6.40;;;;;;;15.97;92.50;100462.03;5016994;28;20041;-64
2023/07/05 08:21:49;;;;;;;10.60;3.38;;;;;;;15.88;92.06;100487.84;5040505;28;20056;-63
2023/07/05 08:24:17;;;;;;;11.52;4.25;;;;;;;15.89;93.58;100472.97;5052807;28;20061;-65
2023/07/05 08:26:49;;;;;;;13.48;4.30;;;;;;;15.93;92.64;100490.47;5036589;28;20053;-64
2023/07/05 08:29:16;;;;;;;9.02;4.00;;;;;;;15.76;91.45;100469.97;5019838;28;20044;-65
2023/07/05 08:31:47;;;;;;;12.95;4.28;;;;;;;15.85;92.53;100491.19;5052323;28;20045;-64
2023/07/05 08:34:16;;;;;;;11.27;3.70;;;;;;;15.85;92.17;100482.94;5052651;28;20431;-65
2023/07/05 08:36:46;;;;;;;13.57;3.75;;;;;;;15.85;92.75;100488.44;5052593;28;20044;-65
2023/07/05 08:39:14;;;;;;;12.68;4.32;;;;;;;15.92;92.99;100497.06;5053947;28;20037;-63
2023/07/05 08:41:45;;;;;;;21.30;6.47;;;;;;;16.08;92.11;100492.81;5045440;28;20505;-64
2023/07/05 08:44:42;;;;;;;12.98;4.50;;;;;;;16.15;91.35;100497.88;5034432;28;20054;-64
2023/07/05 08:47:18;;;;;;;11.52;4.35;;;;;;;16.09;91.96;100499.97;5020451;28;20125;-64
2023/07/05 08:50:03;;;;;;;13.90;4.10;;;;;;;16.12;92.03;100513.06;5039164;28;20573;-65
2023/07/05 08:52:54;;;;;;;12.80;4.22;;;;;;;16.15;92.48;100528.91;5040489;28;20096;-64
2023/07/05 08:55:53;;;;;;;12.55;4.00;;;;;;;16.10;95.23;100512.56;5037274;28;20156;-66
2023/07/05 08:58:23;;;;;;;9.95;4.30;;;;;;;16.07;96.51;100537.94;5037370;28;20175;-64
2023/07/05 09:01:00;;;;;;;12.57;3.67;;;;;;;15.90;98.04;100532.31;5022821;28;20440;-64
2023/07/05 09:03:29;;;;;;;9.00;3.40;;;;;;;15.87;96.50;100549.38;5056750;28;20041;-65
2023/07/05 09:06:09;;;;;;;13.38;4.43;;;;;;;15.98;96.69;100543.34;5057267;28;20060;-64
2023/07/05 09:09:04;;;;;;;10.68;3.50;;;;;;;16.02;95.85;100560.03;5039019;28;20060;-65
2023/07/05 09:12:03;;;;;;;12.52;4.25;;;;;;;16.12;94.29;100548.78;5048182;28;20053;-65
2023/07/05 09:14:49;;;;;;;14.68;3.83;;;;;;;16.19;93.27;100562.09;5056926;28;20166;-62
2023/07/05 09:17:46;;;;;;;9.18;3.80;;;;;;;16.26;91.89;100567.97;5055475;28;20047;-65
2023/07/05 09:20:29;;;;;;;13.63;3.80;;;;;;;16.30;90.33;100560.72;5049460;28;20053;-66
2023/07/05 09:22:59;;;;;;;11.07;3.75;;;;;;;16.37;88.12;100576.78;5037146;28;20044;-64
2023/07/05 09:25:30;;;;;;;14.70;4.05;;;;;;;16.38;89.29;100583.91;5019606;28;20053;-64
2023/07/05 09:28:45;;;;;;;9.13;3.83;;;;;;;16.40;89.64;100587.97;5035890;28;20099;-66
2023/07/05 09:31:14;;;;;;;11.93;4.00;;;;;;;16.43;88.48;100591.19;5046379;28;20060;-64
2023/07/05 09:33:47;;;;;;;7.93;3.20;;;;;;;16.41;88.83;100594.28;5035564;28;20414;-65
2023/07/05 09:36:22;;;;;;;10.82;3.00;;;;;;;16.44;86.76;100595.59;5035846;28;20059;-66
2023/07/05 09:39:10;;;;;;;12.88;3.55;;;;;;;16.39;87.13;100607.53;5035484;28;20056;-63
2023/07/05 09:41:46;;;;;;;10.45;3.25;;;;;;;16.35;89.10;100623.81;5048803;28;20055;-64
2023/07/05 09:44:16;;;;;;;12.13;3.65;;;;;;;16.37;89.28;100640.03;5055298;28;20448;-64
2023/07/05 09:46:45;;;;;;;13.40;3.78;;;;;;;16.29;89.47;100641.59;5055879;28;20048;-64
2023/07/05 09:49:15;;;;;;;10.77;3.58;;;;;;;16.29;87.94;100643.53;5038975;28;20045;-65
2023/07/05 09:51:46;;;;;;;12.75;3.53;;;;;;;16.35;88.87;100650.50;5011807;28;20154;-65
2023/07/05 09:54:25;;;;;;;13.98;3.58;;;;;;;16.34;87.72;100640.66;5035815;28;20041;-63
2023/07/05 09:57:04;;;;;;;15.18;3.47;;;;;;;16.23;89.08;100673.06;5019611;28;20061;-64
2023/07/05 09:59:34;;;;;;;10.13;3.05;;;;;;;16.27;88.75;100676.81;5003018;28;20524;-64
2023/07/05 10:02:12;;;;;;;12.23;3.50;;;;;;;16.27;86.68;100665.81;5035961;28;20387;-65
2023/07/05 10:04:46;;;;;;;9.82;2.97;;;;;;;16.32;86.41;100667.63;5047778;28;20516;-65
2023/07/05 10:07:23;;;;;;;13.43;3.30;;;;;;;16.35;83.25;100673.31;5057937;28;20049;-65
2023/07/05 10:10:01;;;;;;;15.40;3.30;;;;;;;16.52;84.00;100669.09;5065237;28;20045;-64
2023/07/05 10:12:38;;;;;;;16.92;3.10;;;;;;;16.65;80.83;100672.94;5072084;28;20083;-63
2023/07/05 10:15:21;;;;;;;10.43;3.13;;;;;;;16.74;80.93;100674.63;5060405;28;20516;-64
2023/07/05 10:17:51;;;;;;;7.55;2.80;;;;;;;16.86;75.34;100692.50;5040328;28;20061;-64
2023/07/05 10:20:26;;;;;;;10.10;2.60;;;;;;;16.91;73.90;100689.63;5043649;28;20185;-61
2023/07/05 10:23:01;;;;;;;11.95;2.97;;;;;;;17.10;75.09;100705.94;5049247;28;20125;-62
2023/07/05 10:25:33;;;;;;;6.78;2.60;;;;;;;17.25;70.40;100709.13;5043811;28;20054;-61
2023/07/05 10:28:05;;;;;;;10.10;2.55;;;;;;;17.22;68.71;100719.94;5035422;28;20052;-63
2023/07/05 10:30:59;;;;;;;12.82;2.75;;;;;;;17.27;69.79;100711.56;5036557;28;20113;-64
2023/07/05 10:33:29;;;;;;;12.40;3.08;;;;;;;17.39;68.75;100722.78;5035369;28;20083;-64
2023/07/05 10:36:02;;;;;;;8.68;2.78;;;;;;;17.41;68.22;100725.22;5034656;28;20507;-65
2023/07/05 10:38:32;;;;;;;8.82;2.38;;;;;;;17.42;68.05;100755.22;5034887;28;20056;-65
2023/07/05 10:41:19;;;;;;;10.18;2.40;;;;;;;17.46;65.92;100733.34;5036209;28;20048;-65
2023/07/05 10:44:07;;;;;;;7.97;2.20;;;;;;;17.56;66.01;100732.28;5036083;28;20086;-65
2023/07/05 10:46:37;;;;;;;11.00;2.67;;;;;;;17.66;64.58;100723.72;5034311;28;20054;-64
2023/07/05 10:49:13;;;;;;;11.48;2.88;;;;;;;17.68;64.33;100740.75;5002314;28;20106;-63
2023/07/05 10:51:52;;;;;;;7.28;2.60;;;;;;;17.64;62.35;100761.81;5017867;28;20060;-65
2023/07/05 10:54:29;;;;;;;11.15;2.85;;;;;;;17.59;62.14;100756.44;5019031;28;20482;-64
2023/07/05 10:56:57;;;;;;;8.50;2.47;;;;;;;17.64;62.11;100745.28;5035466;28;20057;-64
2023/07/05 10:59:46;;;;;;;10.32;2.30;;;;;;;17.68;61.58;100751.78;5033743;28;20064;-63
2023/07/05 11:02:19;;;;;;;7.93;2.33;;;;;;;17.62;62.05;100767.63;5034159;28;20068;-65
2023/07/05 11:04:49;;;;;;;9.75;2.80;;;;;;;17.64;62.99;100783.84;5033616;28;20053;-65
2023/07/05 11:07:18;;;;;;;9.02;2.33;;;;;;;17.59;62.08;100792.25;5035407;28;20049;-66
2023/07/05 11:09:46;;;;;;;8.52;2.20;;;;;;;17.54;61.30;100779.41;5017234;28;20485;-64
2023/07/05 11:12:27;;;;;;;5.38;2.38;;;;;;;17.38;61.94;100781.75;5034180;28;20044;-64
2023/07/05 11:14:56;;;;;;;6.50;2.38;;;;;;;17.36;63.25;100789.50;5034873;28;20060;-64
2023/07/05 11:17:37;;;;;;;8.85;2.78;;;;;;;17.40;63.21;100790.50;5049860;28;20052;-65
2023/07/05 11:20:39;;;;;;;5.88;2.15;;;;;;;17.43;64.66;100789.06;5037018;28;20447;-65
2023/07/05 11:23:11;;;;;;;6.25;2.15;;;;;;;17.33;66.98;100820.44;5050195;28;20056;-65
2023/07/05 11:25:56;;;;;;;6.28;2.60;;;;;;;17.15;68.41;100818.69;5036507;28;20056;-63
2023/07/05 11:28:50;;;;;;;5.85;2.35;;;;;;;17.10;69.31;100821.56;5053555;28;20056;-63
2023/07/05 11:31:43;;;;;;;7.68;2.83;;;;;;;17.08;69.79;100821.88;5053125;28;20117;-65
2023/07/05 11:34:20;;;;;;;7.20;2.63;;;;;;;17.09;71.20;100817.19;5049870;28;20124;-64
2023/07/05 11:36:53;;;;;;;5.90;2.20;;;;;;;17.18;71.70;100818.06;5049962;28;20049;-63
2023/07/05 11:39:42;;;;;;;8.90;2.80;;;;;;;17.25;71.23;100821.22;5035283;28;20050;-63
2023/07/05 11:42:12;;;;;;;7.68;2.90;;;;;;;17.33;70.09;100825.16;5034025;28;20049;-63
2023/07/05 11:44:45;;;;;;;6.68;2.55;;;;;;;17.43;66.32;100822.94;5035614;28;20042;-69